This is the latest recevied weather packets stored in our database for station/object SQ9RHX-11. If no packets are shown the sender has not sent any weather packets the latest 10 day(s).
| Time | Temp. | Humidity | Pressure | Rain* | Wind** | Luminosity | Snow |
|---|---|---|---|---|---|---|---|
| 1777941066 | 11.11° C | 75% | 1011.2 hPa | - | - | - | - |
| 1777939266 | 11.11° C | 74% | 1011.5 hPa | - | - | - | - |
| 1777937466 | 11.11° C | 72% | 1011.8 hPa | - | - | - | - |
| 1777935666 | 11.11° C | 71% | 1011.9 hPa | - | - | - | - |
| 1777933867 | 11.67° C | 68% | 1012 hPa | - | - | - | - |
| 1777932068 | 12.22° C | 66% | 1012.1 hPa | - | - | - | - |
| 1777930270 | 12.78° C | 63% | 1012.1 hPa | - | - | - | - |
| 1777928470 | 13.89° C | 61% | 1011.9 hPa | - | - | - | - |
| 1777926671 | 14.44° C | 58% | 1011.9 hPa | - | - | - | - |
| 1777924871 | 15° C | 58% | 1011.9 hPa | - | - | - | - |
| 1777923074 | 15.56° C | 57% | 1011.8 hPa | - | - | - | - |
| 1777921274 | 16.67° C | 51% | 1011.7 hPa | - | - | - | - |
| 1777919474 | 18.89° C | 46% | 1011.4 hPa | - | - | - | - |
| 1777917675 | 21.67° C | 40% | 1011.3 hPa | - | - | - | - |
| 1777915876 | 24.44° C | 35% | 1011.1 hPa | - | - | - | - |
| 1777914077 | 26.11° C | 33% | 1011.3 hPa | - | - | - | - |
| 1777912277 | 26.67° C | 32% | 1011.2 hPa | - | - | - | - |
| 1777910477 | 28.33° C | 32% | 1011.3 hPa | - | - | - | - |
| 1777908677 | 27.78° C | 32% | 1011.4 hPa | - | - | - | - |
| 1777906878 | 28.89° C | 29% | 1011.4 hPa | - | - | - | - |
| 1777905078 | 28.89° C | 30% | 1011.7 hPa | - | - | - | - |
| 1777903278 | 29.44° C | 29% | 1011.9 hPa | - | - | - | - |
| 1777901479 | 31.11° C | 27% | 1012 hPa | - | - | - | - |
| 1777899679 | 30° C | 28% | 1012.3 hPa | - | - | - | - |
| 1777897879 | 30.56° C | 28% | 1012.5 hPa | - | - | - | - |
* Rain since midnight (hover to see other rain measurements)
** Current wind speed in m/s (hover to see current wind gust speed)